Terminal Aerodrome Forecast
Issued by NWS

Home | Current Version | Previous Version | Text Only | Print | Product List | Glossary On
Versions: 1 2 3 4 5 6 7 8 9 10 11 12 13 14 15 16 17 18
964
FTUS46 KMFR 192345
TAFLMT
TAF
KLMT 192345Z 2000/2024 26020G25KT P6SM VCSH OVC040
     FM200200 24009KT P6SM VCSH SCT040 OVC060
     FM200500 22014KT P6SM VCSH OVC035
     FM201300 23020G30KT 4SM -SHRA BKN019=

USA.gov is the U.S. government's official web portal to all federal, state and local government web resources and services.